Αρχική σελίδα
METAR-TAF:

METAR-TAF

Αεροδρόμια :

Ντζαμένα, Τσαντ

γεωγραφικό πλάτος: 12-08N, γεωγραφικό μήκος: 015-02E, υψόμετρο: 295 μ

Παρών καιρός

Η αναφορά έγινε 5 ώρες και 54 λεπτά πριν, στις 18:00 UTC
Άνεμος 2 kt από Ν
Θερμοκρασία 29°C
Υγρασία 74%
Πίεση 1009 hPa
Ορατότητα 10 χλμ και άνω
Δεν υπάρχουν νέφη με βάση κάτω από τα 1500 μ. και δεν υπάρχουν νέφη σωρειτομελανίτες.

METAR: FTTJ 251800Z 18002KT CAVOK 29/24 Q1009 NOSIG

Χρόνος: 00:54 (23:54 UTC)

Πρόγνωση Καιρού

Η αναφορά έγινε 54 λεπτά πριν, στις 23:00 UTC
Η πρόγνωση ισχύει από τις 26 στις 00 UTC έως τις 27 στις 06 UTC
Άνεμος 4 kt από Ν/ΝΔ
Ορατότητα 10 χλμ και άνω
Δεν υπάρχουν νέφη με βάση κάτω από τα 1500 μ. και δεν υπάρχουν νέφη σωρειτομελανίτες.
Πιθανότητα 30% :
Προσωρινά
από 26 στις 16 UTC έως τις 26 στις 23 UTC
καταιγίδα

TAF: FTTJ 252300Z 2600/2706 20004KT CAVOK PROB30 TEMPO 2616/2623 TS

Μετεωρολογικές αναφορές και προγνώσεις για περισσότερα από 4000 αεροδρόμια (δελτία METAR και TAF).

Οι διαθέσιμοι σταθμοί απεικονίζονται στο χάρτη με κίτρινες και κόκκινες κουκκίδες.

Μετακινήστε το ποντίκι πάνω από τις κουκκίδες για να δείτε το όνομα του σταθμού.

Στη συνέχεια, κάντε κλικ για να δείτε τις μετεωρολογικές αναφορές και τις προγνώσεις καιρού.

Για να αλλάξετε το χάρτη: κάντε κλικ στα πράσινα κουμπιά με τον μαύρο σταυρό για να ζουμάρετε, στο πράσινο κουμπί με την παύλα για να αφαιρέσετε το ζουμ ή στα πράσινα βέλη για να αντιπαραβάλλετε χάρτες.


METAR-TAF: